Wood Heights, Missouri
Current Conditions -  °F | °C
As of 4:15 AM on Sunday 23 Nov 2014 (Local Time) from KGPH Reporting Station
Drizzle Drizzle  
Wind Chill: 52°   Ceiling: 1100
Heat Index: 52°   Visibility: 10mi
Dew Point: 52°   Wind: 3mph
Humidity: 100%   Direction: 110°ESE
Pressure: 29.59"   Gusts: NA
Location:  39.3039°N, 94.2206°W
Report Text: KGPH 231015Z AUTO 11003KT 10SM -DZ SCT007 OVC011 11/11 A2959 RMK AO2
Loading
Personal Weather Stations






























Interactive Weather Map New forecast layout! Learn more

10-Day Weather Forecast

Advertisements
Track Severe Weather on mobile